Time;durP1;ratioP1;P1;durP2;ratioP2;P2;SDS_P1;SDS_P2;PMS_P1;PMS_P2;Temp;Humidity;BMP_temperature;BMP_pressure;BME280_temperature;BME280_humidity;BME280_pressure;Samples;Min_cycle;Max_cycle;Signal;HPM_P1;HPM_P2
2022/03/07 00:06:58;;;;;;;2.42;1.55;;;8.20;62.80;;;;;;20880680;28;20045;-79
2022/03/07 00:16:59;;;;;;;3.67;1.65;;;8.20;62.80;;;;;;20866349;28;20481;-80
2022/03/07 00:26:59;;;;;;;4.40;1.85;;;8.20;62.80;;;;;;20849889;28;20119;-79
2022/03/07 00:37:00;;;;;;;3.60;1.73;;;8.20;62.80;;;;;;20848998;28;20033;-80
2022/03/07 00:47:01;;;;;;;2.95;1.60;;;8.20;62.80;;;;;;20879607;28;20547;-80
2022/03/07 00:57:02;;;;;;;2.95;1.60;;;8.10;62.80;;;;;;20864737;28;20327;-80
2022/03/07 01:07:03;;;;;;;4.45;1.70;;;8.10;62.70;;;;;;20862786;28;20322;-80
2022/03/07 01:17:03;;;;;;;4.55;2.35;;;8.10;62.70;;;;;;20862050;28;20025;-80
2022/03/07 01:27:04;;;;;;;5.00;1.60;;;8.20;62.70;;;;;;20861110;28;20041;-80
2022/03/07 01:37:05;;;;;;;3.80;1.80;;;8.10;62.60;;;;;;20877285;28;20489;-78
2022/03/07 01:47:06;;;;;;;2.72;1.65;;;8.10;62.60;;;;;;20876226;28;20048;-78
2022/03/07 01:57:07;;;;;;;3.33;1.80;;;8.20;62.60;;;;;;20843749;28;20025;-80
2022/03/07 02:07:08;;;;;;;4.00;1.75;;;8.10;62.60;;;;;;20859772;28;20477;-79
2022/03/07 02:17:09;;;;;;;3.13;1.75;;;8.10;62.50;;;;;;20873840;28;20063;-79
2022/03/07 02:27:11;;;;;;;2.97;1.67;;;8.10;62.50;;;;;;20874184;28;20033;-80
2022/03/07 02:37:13;;;;;;;3.05;1.45;;;8.10;62.50;;;;;;20843108;28;20443;-79
2022/03/07 02:47:18;;;;;;;3.92;1.52;;;8.10;62.50;;;;;;20859800;28;20082;-78
2022/03/07 02:57:19;;;;;;;2.22;1.55;;;8.10;62.50;;;;;;20841001;28;20052;-79
2022/03/07 03:07:20;;;;;;;2.15;1.20;;;8.10;62.40;;;;;;20875717;28;20130;-78
2022/03/07 03:17:20;;;;;;;2.25;1.30;;;8.10;62.50;;;;;;20888819;28;20388;-79
2022/03/07 03:27:21;;;;;;;2.85;1.52;;;8.10;62.50;;;;;;20904244;28;20119;-79
2022/03/07 03:37:24;;;;;;;2.95;1.27;;;8.00;62.40;;;;;;20902814;28;20139;-79
2022/03/07 03:47:25;;;;;;;1.70;1.20;;;8.00;62.40;;;;;;20870739;28;20037;-79
2022/03/07 03:57:26;;;;;;;3.58;1.60;;;8.00;62.40;;;;;;20919266;28;20049;-79
2022/03/07 04:07:27;;;;;;;3.33;1.52;;;8.00;62.50;;;;;;20868085;28;20480;-79
2022/03/07 04:17:28;;;;;;;3.50;1.83;;;8.00;62.40;;;;;;20882483;28;20123;-79
2022/03/07 04:27:28;;;;;;;4.82;1.48;;;8.00;62.40;;;;;;20882026;28;20299;-79
2022/03/07 04:37:29;;;;;;;2.22;1.30;;;8.00;62.40;;;;;;20898375;28;20044;-79
2022/03/07 04:47:29;;;;;;;1.42;1.05;;;8.00;62.40;;;;;;20897836;28;20396;-79
2022/03/07 04:57:30;;;;;;;2.73;1.30;;;8.00;62.40;;;;;;20864242;28;20292;-78
2022/03/07 05:07:31;;;;;;;2.03;1.25;;;7.90;62.30;;;;;;20862771;28;20941;-79
2022/03/07 05:17:31;;;;;;;2.97;1.20;;;8.00;62.30;;;;;;20862342;28;20503;-79
2022/03/07 05:27:32;;;;;;;2.20;1.00;;;8.20;61.90;;;;;;20861160;28;20041;-78
2022/03/07 05:37:32;;;;;;;1.33;0.77;;;8.50;61.30;;;;;;20876629;28;20061;-79
2022/03/07 05:47:33;;;;;;;1.98;1.15;;;8.80;60.40;;;;;;20875120;28;20362;-73
2022/03/07 05:57:34;;;;;;;1.50;1.05;;;9.10;59.50;;;;;;20873777;28;20033;-77
2022/03/07 06:07:35;;;;;;;2.28;1.25;;;9.40;59.40;;;;;;20888240;28;20036;-71
2022/03/07 06:17:35;;;;;;;2.90;1.73;;;9.50;58.10;;;;;;20906762;28;20052;-72
2022/03/07 06:27:37;;;;;;;2.33;1.33;;;9.40;57.80;;;;;;20889500;28;20037;-74
2022/03/07 06:37:37;;;;;;;7.82;1.77;;;9.20;58.00;;;;;;20834456;28;20037;-71
2022/03/07 06:47:42;;;;;;;3.33;1.58;;;8.90;58.50;;;;;;20890096;28;20073;-73
2022/03/07 06:57:43;;;;;;;2.60;1.65;;;8.70;58.80;;;;;;20903234;28;20040;-73
2022/03/07 07:07:43;;;;;;;2.70;1.58;;;8.50;59.30;;;;;;20898720;28;20047;-71
2022/03/07 07:17:44;;;;;;;2.67;1.25;;;8.40;59.70;;;;;;20887187;28;20647;-74
2022/03/07 07:27:44;;;;;;;4.25;1.50;;;8.30;60.00;;;;;;20902956;28;20037;-72
2022/03/07 07:37:46;;;;;;;2.88;1.70;;;8.30;60.20;;;;;;20886584;28;20115;-73
2022/03/07 07:47:47;;;;;;;3.50;1.80;;;8.20;60.40;;;;;;20842387;28;20400;-75
2022/03/07 07:57:48;;;;;;;3.13;1.92;;;8.10;60.50;;;;;;20895364;28;20385;-73
2022/03/07 08:07:49;;;;;;;3.22;1.40;;;8.10;60.70;;;;;;20881137;28;20029;-73
2022/03/07 08:17:52;;;;;;;2.40;1.58;;;8.10;60.90;;;;;;20880522;28;20508;-73
2022/03/07 08:27:53;;;;;;;2.92;1.60;;;8.10;61.10;;;;;;20879687;28;20067;-74
2022/03/07 08:37:53;;;;;;;2.47;1.60;;;8.00;61.30;;;;;;20865352;28;20037;-81
2022/03/07 08:47:55;;;;;;;1.92;1.17;;;8.00;61.50;;;;;;20853387;28;20033;-83
2022/03/07 08:57:57;;;;;;;2.80;1.90;;;8.00;61.60;;;;;;20836202;28;20036;-77
2022/03/07 09:07:58;;;;;;;4.05;2.25;;;8.00;61.70;;;;;;20878523;28;20033;-82
2022/03/07 09:18:00;;;;;;;4.18;1.92;;;8.00;61.80;;;;;;20862886;28;20523;-81
2022/03/07 09:28:01;;;;;;;5.38;2.17;;;8.10;61.80;;;;;;20847018;28;20045;-79
2022/03/07 09:38:02;;;;;;;5.07;2.53;;;8.10;61.80;;;;;;20867558;28;20076;-80
2022/03/07 09:48:03;;;;;;;12.57;3.15;;;8.20;61.70;;;;;;20854927;28;20037;-80
2022/03/07 09:58:05;;;;;;;11.93;3.20;;;8.20;61.70;;;;;;20875498;28;20119;-79
2022/03/07 10:08:06;;;;;;;5.32;2.15;;;8.20;61.80;;;;;;20848318;28;20291;-80
2022/03/07 10:18:15;;;;;;;6.75;2.00;;;8.10;61.90;;;;;;20874428;28;20037;-79
2022/03/07 10:28:16;;;;;;;8.27;2.05;;;8.10;61.90;;;;;;20852491;28;20393;-81
2022/03/07 10:38:18;;;;;;;4.97;1.83;;;8.10;61.90;;;;;;20871638;28;20083;-81
2022/03/07 10:48:19;;;;;;;5.00;1.80;;;8.10;61.90;;;;;;20858458;28;20048;-79
2022/03/07 10:58:22;;;;;;;2.75;1.48;;;8.10;62.70;;;;;;20891253;28;20036;-76
2022/03/07 11:08:23;;;;;;;2.92;1.25;;;8.10;62.00;;;;;;20883242;28;20086;-78
2022/03/07 11:18:23;;;;;;;5.13;1.50;;;8.10;62.10;;;;;;20901647;28;20140;-75
2022/03/07 11:28:26;;;;;;;4.05;1.27;;;8.10;62.10;;;;;;21262416;22;20402;-73
2022/03/07 11:38:31;;;;;;;6.80;1.58;;;8.10;62.10;;;;;;20849420;28;20033;-77
2022/03/07 11:48:44;;;;;;;2.72;1.30;;;8.10;62.10;;;;;;20902277;28;20443;-77
2022/03/07 11:58:48;;;;;;;1.38;0.75;;;8.10;62.20;;;;;;20903396;28;20029;-77
2022/03/07 12:08:54;;;;;;;1.77;0.80;;;8.10;62.20;;;;;;20882821;28;20115;-77
2022/03/07 12:19:06;;;;;;;1.67;0.98;;;8.10;62.20;;;;;;20897734;28;20033;-79
2022/03/07 12:29:07;;;;;;;2.08;0.82;;;8.10;62.20;;;;;;20862856;28;20535;-73
2022/03/07 12:39:07;;;;;;;2.17;1.02;;;8.10;62.20;;;;;;20845763;28;20106;-74
2022/03/07 12:49:08;;;;;;;1.13;0.70;;;8.10;62.00;;;;;;20911550;28;20040;-74
2022/03/07 12:59:09;;;;;;;2.17;0.50;;;8.20;61.90;;;;;;20895042;28;20036;-74
2022/03/07 13:09:09;;;;;;;2.35;0.70;;;8.20;61.90;;;;;;20877713;28;20644;-73
2022/03/07 13:19:10;;;;;;;1.15;0.55;;;8.20;62.00;;;;;;20850507;28;20033;-75
2022/03/07 13:29:14;;;;;;;1.95;0.40;;;8.20;62.20;;;;;;20867737;28;20050;-74
2022/03/07 13:39:24;;;;;;;0.60;0.30;;;8.20;62.30;;;;;;20919986;28;20062;-71
2022/03/07 13:49:28;;;;;;;1.02;0.35;;;8.30;62.40;;;;;;20913977;28;20082;-73
2022/03/07 13:59:29;;;;;;;0.55;0.28;;;8.20;62.50;;;;;;20932191;28;20059;-74
2022/03/07 14:09:29;;;;;;;6.18;0.50;;;8.30;62.50;;;;;;20819574;28;20043;-73
2022/03/07 14:19:30;;;;;;;1.33;0.30;;;8.30;62.10;;;;;;20790233;28;20052;-74
2022/03/07 14:29:30;;;;;;;3.33;0.80;;;8.40;62.10;;;;;;20805499;28;20132;-74
2022/03/07 14:39:31;;;;;;;0.77;0.30;;;8.40;62.00;;;;;;20869571;28;20041;-75
2022/03/07 14:49:33;;;;;;;0.50;0.40;;;8.40;62.00;;;;;;20872473;28;20392;-77
2022/03/07 14:59:33;;;;;;;1.92;0.20;;;8.50;62.20;;;;;;20887360;28;20055;-73
2022/03/07 15:09:34;;;;;;;1.00;0.50;;;8.50;62.20;;;;;;20915498;28;20124;-72
2022/03/07 15:19:35;;;;;;;1.23;0.33;;;8.60;62.10;;;;;;20900838;28;20468;-70
2022/03/07 15:29:35;;;;;;;2.67;0.43;;;8.70;61.90;;;;;;20883307;28;20445;-70
2022/03/07 15:39:37;;;;;;;0.70;0.30;;;8.70;61.90;;;;;;20867812;28;20037;-74
2022/03/07 15:49:38;;;;;;;3.78;1.05;;;8.80;61.80;;;;;;20788103;28;20080;-73
2022/03/07 15:59:39;;;;;;;2.08;0.35;;;9.00;61.40;;;;;;20805849;28;20825;-74
2022/03/07 16:09:40;;;;;;;1.02;0.50;;;9.10;61.00;;;;;;20874155;28;20461;-74
2022/03/07 16:19:40;;;;;;;1.52;0.70;;;9.20;60.70;;;;;;20878952;28;20036;-75
2022/03/07 16:29:41;;;;;;;1.50;0.60;;;9.40;60.60;;;;;;20880324;28;20041;-76
2022/03/07 16:39:41;;;;;;;3.47;0.60;;;9.40;60.40;;;;;;20885561;28;20389;-72
2022/03/07 16:49:45;;;;;;;1.05;0.60;;;9.30;60.40;;;;;;20869036;28;20373;-75
2022/03/07 16:59:45;;;;;;;1.15;0.50;;;9.20;60.70;;;;;;20877810;28;20064;-78
2022/03/07 17:09:46;;;;;;;4.63;0.70;;;9.00;61.10;;;;;;20878130;28;20048;-75
2022/03/07 17:19:47;;;;;;;1.77;1.02;;;8.90;61.40;;;;;;20894077;28;20025;-74
2022/03/07 17:29:47;;;;;;;9.32;0.93;;;8.80;61.70;;;;;;20834053;28;20041;-71
2022/03/07 17:39:48;;;;;;;2.00;0.60;;;8.70;61.80;;;;;;20853933;28;20032;-71
2022/03/07 17:49:49;;;;;;;1.25;0.55;;;8.60;62.00;;;;;;20806025;28;20044;-70
2022/03/07 17:59:49;;;;;;;1.90;0.85;;;8.50;62.10;;;;;;20865134;28;20029;-70
2022/03/07 18:09:50;;;;;;;1.95;0.70;;;8.50;62.30;;;;;;20856580;28;20062;-71
2022/03/07 18:19:51;;;;;;;1.27;0.80;;;8.40;62.40;;;;;;20856709;28;20078;-70
2022/03/07 18:29:51;;;;;;;3.08;1.23;;;8.40;62.50;;;;;;20864608;28;20047;-70
2022/03/07 18:39:52;;;;;;;2.10;0.60;;;8.40;62.60;;;;;;20843759;28;20140;-71
2022/03/07 18:49:52;;;;;;;2.15;0.80;;;8.40;62.60;;;;;;20855572;28;20401;-70
2022/03/07 18:59:53;;;;;;;1.27;0.60;;;8.30;62.60;;;;;;20869736;28;20057;-72
2022/03/07 19:09:54;;;;;;;2.08;0.57;;;8.30;62.70;;;;;;20904246;28;20044;-72
2022/03/07 19:19:54;;;;;;;1.90;0.50;;;8.30;62.70;;;;;;20887182;28;20086;-71
2022/03/07 19:29:55;;;;;;;1.02;0.63;;;8.20;62.70;;;;;;20886425;28;20048;-71
2022/03/07 19:39:55;;;;;;;1.52;0.60;;;8.30;62.80;;;;;;20885231;28;20106;-76
2022/03/07 19:49:56;;;;;;;1.60;0.50;;;8.20;62.80;;;;;;20888702;28;20119;-81
2022/03/07 19:59:58;;;;;;;1.77;0.85;;;8.20;62.90;;;;;;20903930;28;20066;-79
2022/03/07 20:09:59;;;;;;;2.38;0.60;;;8.20;62.90;;;;;;20894815;28;20040;-79
2022/03/07 20:19:59;;;;;;;2.53;0.77;;;8.20;62.80;;;;;;20869561;28;20033;-82
2022/03/07 20:30:00;;;;;;;1.85;0.60;;;8.20;62.80;;;;;;20880544;28;20198;-80
2022/03/07 20:40:01;;;;;;;1.02;0.93;;;8.20;62.80;;;;;;20867633;28;20128;-79
2022/03/07 20:50:01;;;;;;;1.08;0.73;;;8.20;62.80;;;;;;20867111;28;20041;-79
2022/03/07 21:00:06;;;;;;;1.40;0.85;;;8.20;62.70;;;;;;20866271;28;20033;-78
2022/03/07 21:10:07;;;;;;;1.50;0.80;;;8.20;62.70;;;;;;20866542;28;20432;-80
2022/03/07 21:20:08;;;;;;;2.55;1.02;;;8.20;62.70;;;;;;20865138;28;20071;-79
2022/03/07 21:30:29;;;;;;;2.22;1.05;;;8.20;62.60;;;;;;20864263;28;20048;-80
2022/03/07 21:40:29;;;;;;;1.80;0.93;;;8.20;62.60;;;;;;20879231;28;20048;-78
2022/03/07 21:50:30;;;;;;;1.15;0.73;;;8.10;62.50;;;;;;20862975;28;20033;-80
2022/03/07 22:00:31;;;;;;;1.42;1.00;;;8.20;62.60;;;;;;20862716;28;20029;-79
2022/03/07 22:10:31;;;;;;;0.98;0.52;;;8.20;62.60;;;;;;20877428;28;20445;-79
2022/03/07 22:20:32;;;;;;;1.63;0.80;;;8.10;62.50;;;;;;20876800;28;20405;-84
2022/03/07 22:30:32;;;;;;;1.27;0.63;;;8.10;62.50;;;;;;20860316;28;20052;-79
2022/03/07 22:40:33;;;;;;;2.55;1.17;;;8.10;62.50;;;;;;20893684;28;20279;-81
2022/03/07 22:50:35;;;;;;;1.67;1.00;;;8.10;62.40;;;;;;20860658;28;20068;-79
2022/03/07 23:00:36;;;;;;;0.77;0.55;;;8.10;62.40;;;;;;20878104;28;20412;-79
2022/03/07 23:10:37;;;;;;;1.98;0.70;;;8.10;62.40;;;;;;20875872;28;20037;-80
2022/03/07 23:20:37;;;;;;;3.22;0.82;;;8.10;62.40;;;;;;20791544;28;20041;-79
2022/03/07 23:30:38;;;;;;;2.20;0.68;;;8.10;62.30;;;;;;20803938;28;20065;-79
2022/03/07 23:40:39;;;;;;;1.77;1.00;;;8.10;62.30;;;;;;20806252;28;20473;-82
2022/03/07 23:50:39;;;;;;;1.58;0.98;;;8.00;62.20;;;;;;20806745;28;20473;-81
